createdAt,value
2017-09-02T00:00:48.705Z,62.00
2017-09-02T00:03:17.239Z,62.30
2017-09-02T00:05:45.424Z,62.50
2017-09-02T00:08:12.868Z,63.20
2017-09-02T00:10:39.035Z,63.30
2017-09-02T00:13:05.201Z,63.60
2017-09-02T00:15:31.374Z,64.30
2017-09-02T00:17:58.638Z,63.50
2017-09-02T00:20:24.827Z,64.20
2017-09-02T00:22:54.663Z,64.00
2017-09-02T00:25:23.101Z,62.90
2017-09-02T00:27:49.269Z,63.80
2017-09-02T00:30:15.462Z,62.60
2017-09-02T00:32:42.261Z,64.10
2017-09-02T00:35:10.433Z,64.00
2017-09-02T00:37:38.612Z,64.00
2017-09-02T00:40:04.808Z,64.00
2017-09-02T00:42:33.031Z,63.80
2017-09-02T00:44:59.264Z,63.70
2017-09-02T00:47:25.471Z,64.00
2017-09-02T00:49:52.411Z,64.00
2017-09-02T00:52:18.612Z,64.00
2017-09-02T00:54:44.794Z,64.00
2017-09-02T00:57:10.966Z,64.00
2017-09-02T00:59:37.259Z,64.00
2017-09-02T01:02:03.417Z,63.80
2017-09-02T01:04:29.603Z,64.50
2017-09-02T01:06:55.810Z,65.50
2017-09-02T01:09:22.002Z,65.20
2017-09-02T01:11:48.186Z,64.50
2017-09-02T01:14:15.111Z,65.90
2017-09-02T01:16:41.292Z,66.50
2017-09-02T01:19:07.523Z,66.60
2017-09-02T01:21:33.718Z,67.30
2017-09-02T01:23:59.892Z,67.50
2017-09-02T01:26:26.795Z,67.10
2017-09-02T01:28:53.008Z,67.30
2017-09-02T01:31:19.243Z,67.30
2017-09-02T01:33:45.386Z,66.60
2017-09-02T01:36:11.608Z,66.30
2017-09-02T01:38:38.509Z,65.80
2017-09-02T01:41:04.684Z,65.40
2017-09-02T01:43:30.899Z,64.90
2017-09-02T01:45:57.088Z,64.80
2017-09-02T01:48:23.280Z,64.50
2017-09-02T01:50:49.427Z,64.40
2017-09-02T01:53:15.619Z,65.30
2017-09-02T01:55:41.782Z,65.10
2017-09-02T01:58:07.989Z,65.60
2017-09-02T02:00:34.204Z,65.60
2017-09-02T02:03:00.386Z,67.30
2017-09-02T02:05:26.544Z,66.40
2017-09-02T02:07:52.994Z,65.60
2017-09-02T02:10:19.888Z,65.60
2017-09-02T02:12:46.052Z,65.30
2017-09-02T02:15:12.222Z,65.30
2017-09-02T02:17:38.433Z,65.00
2017-09-02T02:20:04.578Z,65.90
2017-09-02T02:22:30.758Z,65.50
2017-09-02T02:24:56.963Z,65.10
2017-09-02T02:27:23.157Z,65.90
2017-09-02T02:29:49.315Z,65.80
2017-09-02T02:32:15.482Z,66.00
2017-09-02T02:34:41.673Z,66.40
2017-09-02T02:37:07.875Z,66.20
2017-09-02T02:39:34.111Z,66.10
2017-09-02T02:42:00.615Z,66.90
2017-09-02T02:44:26.815Z,67.30
2017-09-02T02:46:52.997Z,66.90
2017-09-02T02:49:19.147Z,67.40
2017-09-02T02:51:45.313Z,66.60
2017-09-02T04:16:08.022Z,66.90
2017-09-02T04:18:34.243Z,67.30
2017-09-02T04:21:00.408Z,67.00
2017-09-02T04:23:26.576Z,67.30
2017-09-02T04:25:53.123Z,67.30
2017-09-02T04:28:19.273Z,66.90
2017-09-02T04:30:45.806Z,66.70
2017-09-02T04:33:13.778Z,66.30
2017-09-02T04:35:40.003Z,67.00
2017-09-02T04:38:06.634Z,67.10
2017-09-02T04:40:32.834Z,67.50
2017-09-02T04:42:59.362Z,71.90
2017-09-02T04:45:26.194Z,72.60
2017-09-02T04:47:52.349Z,68.10
2017-09-02T04:50:18.908Z,68.00
2017-09-02T04:52:45.116Z,68.70
2017-09-02T04:55:11.275Z,69.00
2017-09-02T04:57:37.479Z,69.10
2017-09-02T05:00:03.687Z,68.90
2017-09-02T05:02:30.173Z,68.80
2017-09-02T05:04:56.350Z,68.50
2017-09-02T05:07:22.565Z,68.00
2017-09-02T05:09:48.771Z,68.10
2017-09-02T05:12:14.938Z,67.80
2017-09-02T05:14:41.116Z,68.00
2017-09-02T05:17:07.383Z,74.00
2017-09-02T05:19:33.623Z,73.90
2017-09-02T05:21:59.791Z,72.80
2017-09-02T05:24:26.008Z,76.70
2017-09-02T05:26:52.164Z,71.60
2017-09-02T05:29:18.530Z,73.20
2017-09-02T05:31:44.691Z,69.60
2017-09-02T05:34:10.866Z,72.20
2017-09-02T05:36:37.421Z,67.50
2017-09-02T05:39:03.618Z,67.70
2017-09-02T05:41:29.811Z,67.00
2017-09-02T05:43:56.339Z,66.70
2017-09-02T05:46:22.543Z,66.90
2017-09-02T05:48:48.707Z,69.40
2017-09-02T05:51:15.622Z,66.90
2017-09-02T05:53:42.782Z,66.30
2017-09-02T05:56:09.691Z,66.40
2017-09-02T05:58:35.950Z,67.00
2017-09-02T06:01:02.527Z,66.50
2017-09-02T06:03:28.724Z,66.80
2017-09-02T06:05:55.210Z,65.90
2017-09-02T06:08:21.478Z,66.00
2017-09-02T06:10:47.654Z,66.10
2017-09-02T06:13:13.826Z,66.20
2017-09-02T06:15:39.990Z,67.10
2017-09-02T06:18:06.195Z,66.80
2017-09-02T06:20:32.383Z,66.40
2017-09-02T06:22:58.548Z,65.60
2017-09-02T06:25:24.836Z,65.50
2017-09-02T06:27:51.453Z,66.10
2017-09-02T06:30:17.638Z,66.30
2017-09-02T06:32:43.814Z,66.40
2017-09-02T06:35:10.255Z,66.30
2017-09-02T06:37:36.425Z,66.20
2017-09-02T06:40:03.337Z,66.30
2017-09-02T06:42:30.580Z,66.00
2017-09-02T06:44:57.578Z,65.90
2017-09-02T06:47:24.513Z,65.90
2017-09-02T06:49:51.434Z,65.60
2017-09-02T06:52:17.585Z,65.40
2017-09-02T06:54:45.510Z,66.40
2017-09-02T06:57:11.675Z,65.50
2017-09-02T06:59:37.829Z,65.20
2017-09-02T07:02:04.028Z,65.50
2017-09-02T07:04:30.654Z,66.00
2017-09-02T07:06:56.823Z,65.00
2017-09-02T07:09:24.013Z,65.50
2017-09-02T07:11:50.542Z,65.00
2017-09-02T07:14:16.698Z,65.60
2017-09-02T07:16:42.970Z,65.00
2017-09-02T07:19:09.159Z,64.70
2017-09-02T07:21:35.375Z,64.20
2017-09-02T07:24:01.551Z,64.70
2017-09-02T07:26:27.703Z,63.60
2017-09-02T07:28:53.918Z,63.70
2017-09-02T07:31:20.482Z,63.70
2017-09-02T07:33:46.641Z,64.30
2017-09-02T07:36:12.834Z,63.80
2017-09-02T07:38:39.074Z,63.00
2017-09-02T07:41:05.282Z,62.70
2017-09-02T07:43:31.431Z,63.20
2017-09-02T07:45:57.654Z,60.90
2017-09-02T07:48:23.882Z,62.10
2017-09-02T07:50:50.631Z,59.80
2017-09-02T07:53:16.811Z,58.90
2017-09-02T07:55:43.013Z,59.50
2017-09-02T07:58:09.307Z,60.30
2017-09-02T08:00:35.576Z,59.70
2017-09-02T08:03:01.814Z,58.50
2017-09-02T08:05:28.917Z,58.40
2017-09-02T08:07:55.134Z,59.00
2017-09-02T08:10:21.351Z,58.60
2017-09-02T08:12:47.802Z,59.10
2017-09-02T08:15:14.044Z,59.00
2017-09-02T08:17:40.235Z,58.20
2017-09-02T08:20:06.409Z,57.00
2017-09-02T08:22:33.657Z,56.00
2017-09-02T08:24:59.845Z,56.80
2017-09-02T08:27:26.030Z,55.90
2017-09-02T08:29:52.782Z,56.50
2017-09-02T08:32:18.981Z,57.50
2017-09-02T08:34:45.200Z,57.00
2017-09-02T08:37:11.444Z,56.90
2017-09-02T08:39:37.651Z,57.60
2017-09-02T08:42:03.831Z,57.90
2017-09-02T08:44:30.102Z,57.10
2017-09-02T08:46:56.300Z,57.60
2017-09-02T08:49:22.484Z,57.50
2017-09-02T08:51:48.745Z,57.40
2017-09-02T08:54:14.974Z,57.30
2017-09-02T08:56:41.129Z,57.30
2017-09-02T08:59:07.332Z,57.20
2017-09-02T09:01:33.506Z,58.30
2017-09-02T09:04:00.323Z,58.50
2017-09-02T09:06:26.562Z,57.30
2017-09-02T09:08:52.744Z,57.50
2017-09-02T09:11:18.924Z,57.80
2017-09-02T09:13:45.119Z,56.80
2017-09-02T09:16:11.294Z,57.40
2017-09-02T09:18:37.488Z,56.80
2017-09-02T09:21:03.675Z,57.30
2017-09-02T09:23:29.905Z,56.90
2017-09-02T09:25:56.077Z,56.80
2017-09-02T09:28:22.207Z,56.80
2017-09-02T09:30:48.432Z,56.60
2017-09-02T09:33:14.644Z,57.90
2017-09-02T09:35:40.807Z,57.70
2017-09-02T09:38:07.939Z,58.20
2017-09-02T09:40:34.123Z,58.00
2017-09-02T09:43:00.299Z,58.10
2017-09-02T09:45:26.638Z,57.10
2017-09-02T09:47:52.804Z,57.50
2017-09-02T09:50:19.751Z,58.10
2017-09-02T09:52:45.975Z,58.30
2017-09-02T09:55:12.166Z,59.00
2017-09-02T09:57:38.381Z,58.00
2017-09-02T10:00:05.943Z,57.00
2017-09-02T10:02:32.153Z,56.00
2017-09-02T10:05:00.595Z,56.50
2017-09-02T10:07:26.772Z,56.10
2017-09-02T10:09:52.927Z,56.70
2017-09-02T10:12:19.835Z,56.60
2017-09-02T10:14:46.002Z,56.20
2017-09-02T10:17:12.868Z,56.00
2017-09-02T10:19:39.767Z,55.60
2017-09-02T10:22:06.394Z,55.60
2017-09-02T10:24:32.687Z,55.50
2017-09-02T10:27:00.638Z,51.90
2017-09-02T10:29:26.813Z,51.40
2017-09-02T10:31:54.083Z,49.80
2017-09-02T10:34:20.343Z,49.00
2017-09-02T10:36:47.490Z,49.10
2017-09-02T10:39:13.727Z,48.40
2017-09-02T10:41:40.926Z,47.40
2017-09-02T10:44:07.093Z,46.40
2017-09-02T10:46:33.289Z,45.30
2017-09-02T10:48:59.816Z,46.00
2017-09-02T10:51:26.570Z,45.10
2017-09-02T11:03:39.663Z,42.90
2017-09-02T11:06:06.020Z,42.00
2017-09-02T11:08:32.212Z,42.10
2017-09-02T11:10:58.382Z,43.80
2017-09-02T11:13:24.554Z,43.90
2017-09-02T11:15:51.577Z,41.80
2017-09-02T11:18:18.661Z,43.00
2017-09-02T11:20:44.823Z,44.60
2017-09-02T11:23:11.034Z,48.50
2017-09-02T11:25:37.283Z,50.90
2017-09-02T11:28:03.442Z,52.40
2017-09-02T11:30:29.633Z,51.90
2017-09-02T11:32:59.973Z,51.80
2017-09-02T11:35:27.643Z,52.40
2017-09-02T11:37:53.819Z,54.70
2017-09-02T11:40:20.011Z,57.20
2017-09-02T11:42:46.174Z,57.70
2017-09-02T11:45:12.373Z,57.60
2017-09-02T11:47:40.324Z,58.60
2017-09-02T11:50:06.545Z,61.80
2017-09-02T11:52:33.290Z,61.70
2017-09-02T11:54:59.489Z,59.40
2017-09-02T11:57:25.663Z,61.60
2017-09-02T11:59:51.873Z,62.20
2017-09-02T12:02:18.085Z,61.80
2017-09-02T12:04:45.158Z,60.00
2017-09-02T12:07:11.407Z,62.40
2017-09-02T12:09:37.575Z,56.50
2017-09-02T12:12:03.823Z,56.50
2017-09-02T12:14:30.626Z,54.00
2017-09-02T12:16:56.802Z,51.90
2017-09-02T12:19:23.329Z,50.90
2017-09-02T12:21:49.911Z,49.60
2017-09-02T12:24:16.483Z,51.30
2017-09-02T12:26:42.687Z,52.80
2017-09-02T12:29:09.588Z,53.40
2017-09-02T12:31:35.863Z,55.10
2017-09-02T12:34:02.058Z,57.10
2017-09-02T12:36:28.264Z,55.90
2017-09-02T12:38:54.432Z,55.60
2017-09-02T12:41:20.612Z,56.40
2017-09-02T12:43:47.266Z,55.50
2017-09-02T12:46:13.446Z,54.90
2017-09-02T12:48:39.647Z,62.90
2017-09-02T12:51:06.589Z,49.00
2017-09-02T12:53:32.792Z,50.00
2017-09-02T12:55:58.974Z,48.40
2017-09-02T12:58:25.123Z,49.00
2017-09-02T13:00:51.319Z,53.40
2017-09-02T13:03:17.518Z,51.90
2017-09-02T13:05:43.755Z,52.10
2017-09-02T13:08:10.204Z,58.00
2017-09-02T13:10:37.114Z,47.60
2017-09-02T13:13:03.686Z,48.10
2017-09-02T13:15:30.618Z,47.60
2017-09-02T13:17:56.823Z,46.00
2017-09-02T13:20:23.050Z,48.80
2017-09-02T13:22:49.261Z,48.00
2017-09-02T13:25:15.434Z,47.50
2017-09-02T13:27:41.627Z,47.00
2017-09-02T13:30:07.813Z,48.00
2017-09-02T13:32:34.008Z,48.30
2017-09-02T13:35:00.203Z,49.90
2017-09-02T13:37:26.382Z,51.00
2017-09-02T13:39:54.067Z,50.70
2017-09-02T13:42:21.346Z,49.80
2017-09-02T13:44:47.519Z,50.80
2017-09-02T13:47:14.339Z,50.80
2017-09-02T13:49:41.931Z,51.60
2017-09-02T13:52:08.112Z,52.30
2017-09-02T13:54:34.294Z,52.40
2017-09-02T13:57:01.279Z,52.50
2017-09-02T13:59:28.266Z,52.70
2017-09-02T14:01:55.234Z,53.30
2017-09-02T14:04:21.386Z,54.00
2017-09-02T14:06:47.594Z,54.20
2017-09-02T14:09:13.802Z,54.90
2017-09-02T14:11:40.074Z,55.50
2017-09-02T14:14:07.014Z,56.30
2017-09-02T14:16:33.168Z,56.30
2017-09-02T14:19:00.104Z,56.20
2017-09-02T14:21:26.267Z,56.60
2017-09-02T14:23:52.487Z,56.70
2017-09-02T14:26:19.448Z,57.00
2017-09-02T14:28:45.622Z,57.10
2017-09-02T14:31:12.203Z,57.10
2017-09-02T14:33:39.123Z,57.40
2017-09-02T14:36:05.333Z,57.80
2017-09-02T14:38:31.526Z,58.80
2017-09-02T14:40:58.505Z,57.30
2017-09-02T14:43:24.678Z,57.60
2017-09-02T14:45:51.631Z,57.90
2017-09-02T14:48:17.830Z,58.40
2017-09-02T14:50:44.367Z,58.60
2017-09-02T14:53:10.559Z,59.00
2017-09-02T14:55:36.757Z,59.40
2017-09-02T14:58:03.692Z,59.70
2017-09-02T15:00:29.907Z,61.00
2017-09-02T15:02:56.185Z,61.00
2017-09-02T15:07:51.410Z,62.80
2017-09-02T15:12:46.235Z,61.50
2017-09-02T15:15:12.793Z,61.60
2017-09-02T15:17:38.951Z,62.50
2017-09-02T15:20:05.158Z,63.00
2017-09-02T15:22:32.225Z,62.50
2017-09-02T15:24:58.402Z,63.00
2017-09-02T15:27:24.889Z,62.40
2017-09-02T15:29:51.098Z,62.50
2017-09-02T15:32:19.879Z,62.80
2017-09-02T15:34:46.801Z,62.80
2017-09-02T15:37:13.757Z,62.30
2017-09-02T15:39:41.034Z,62.80
2017-09-02T15:42:07.662Z,62.60
2017-09-02T15:44:33.897Z,62.70
2017-09-02T15:47:00.099Z,62.80
2017-09-02T15:49:26.273Z,62.50
2017-09-02T15:51:52.810Z,62.20
2017-09-02T15:54:21.054Z,62.80
2017-09-02T15:56:48.041Z,62.80
2017-09-02T15:59:17.122Z,63.10
2017-09-02T16:01:43.332Z,64.60
2017-09-02T16:04:09.562Z,64.70
2017-09-02T16:06:35.777Z,64.60
2017-09-02T16:09:02.027Z,65.20
2017-09-02T16:11:28.217Z,64.60
2017-09-02T16:13:54.447Z,65.40
2017-09-02T16:16:20.671Z,64.70
2017-09-02T16:18:46.854Z,65.60
2017-09-02T16:21:13.076Z,65.00
2017-09-02T16:23:39.281Z,64.80
2017-09-02T16:26:05.455Z,64.40
2017-09-02T16:28:31.626Z,64.20
2017-09-02T16:30:59.221Z,64.50
2017-09-02T16:33:25.470Z,64.40
2017-09-02T16:35:51.635Z,65.10
2017-09-02T16:38:18.793Z,66.00
2017-09-02T16:40:44.963Z,65.50
2017-09-02T16:43:12.014Z,65.50
2017-09-02T16:45:38.311Z,66.00
2017-09-02T16:48:05.270Z,66.10
2017-09-02T16:50:31.478Z,64.60
2017-09-02T16:52:57.756Z,64.40
2017-09-02T16:55:23.963Z,64.30
2017-09-02T16:57:50.175Z,64.30
2017-09-02T17:00:16.396Z,64.50
2017-09-02T17:02:45.209Z,64.30
2017-09-02T17:05:12.242Z,64.80
2017-09-02T17:07:38.526Z,64.70
2017-09-02T17:10:04.976Z,65.80
2017-09-02T17:12:31.288Z,66.80
2017-09-02T17:14:57.489Z,67.40
2017-09-02T17:17:23.702Z,68.00
2017-09-02T17:19:50.265Z,68.00
2017-09-02T17:22:16.727Z,67.90
2017-09-02T17:24:42.918Z,68.00
2017-09-02T17:27:09.136Z,68.30
2017-09-02T17:29:35.384Z,68.00
2017-09-02T17:32:02.383Z,65.70
2017-09-02T17:34:29.581Z,66.30
2017-09-02T17:36:55.764Z,66.10
2017-09-02T17:39:22.037Z,67.40
2017-09-02T17:41:48.199Z,66.60
2017-09-02T17:44:15.070Z,67.30
2017-09-02T17:46:41.293Z,67.00
2017-09-02T17:49:07.501Z,66.70
2017-09-02T17:51:33.698Z,65.50
2017-09-02T17:53:59.879Z,66.10
2017-09-02T17:56:26.168Z,66.30
2017-09-02T17:58:52.375Z,66.30
2017-09-02T18:01:18.555Z,66.10
2017-09-02T18:03:44.728Z,64.70
2017-09-02T18:06:10.932Z,65.30
2017-09-02T18:08:37.193Z,65.30
2017-09-02T18:11:03.430Z,66.50
2017-09-02T18:13:29.662Z,66.30
2017-09-02T18:15:56.655Z,66.20
2017-09-02T18:18:23.051Z,66.40
2017-09-02T18:20:49.232Z,66.80
2017-09-02T18:23:15.444Z,67.40
2017-09-02T18:25:41.651Z,68.30
2017-09-02T18:28:07.842Z,67.80
2017-09-02T18:30:34.385Z,68.10
2017-09-02T18:33:00.540Z,69.10
2017-09-02T18:35:26.733Z,69.40
2017-09-02T18:37:52.915Z,69.30
2017-09-02T18:40:19.103Z,70.10
2017-09-02T18:42:45.392Z,70.40
2017-09-02T18:45:11.550Z,70.60
2017-09-02T18:47:37.816Z,71.20
2017-09-02T18:50:04.121Z,71.00
2017-09-02T18:52:30.361Z,70.90
2017-09-02T18:54:56.617Z,71.30
2017-09-02T18:57:22.826Z,70.80
2017-09-02T18:59:49.054Z,70.30
2017-09-02T19:02:15.373Z,71.00
2017-09-02T19:04:41.568Z,71.00
2017-09-02T19:07:09.345Z,71.30
2017-09-02T19:09:35.831Z,71.30
2017-09-02T19:12:02.086Z,70.70
2017-09-02T19:14:29.318Z,71.40
2017-09-02T19:16:55.555Z,70.70
2017-09-02T19:19:21.742Z,70.80
2017-09-02T19:21:47.901Z,71.00
2017-09-02T19:24:14.132Z,71.90
2017-09-02T19:26:40.411Z,72.10
2017-09-02T19:29:06.616Z,72.10
2017-09-02T19:31:32.847Z,71.40
2017-09-02T19:33:59.060Z,71.30
2017-09-02T19:36:25.233Z,72.00
2017-09-02T19:38:51.785Z,70.20
2017-09-02T19:41:17.985Z,69.60
2017-09-02T19:43:44.573Z,69.60
2017-09-02T19:46:11.096Z,68.80
2017-09-02T19:48:37.371Z,68.80
2017-09-02T19:51:03.627Z,68.50
2017-09-02T19:53:30.428Z,68.00
2017-09-02T19:55:56.742Z,67.50
2017-09-02T19:58:23.974Z,66.90
2017-09-02T20:00:50.452Z,66.80
2017-09-02T20:03:16.966Z,66.90
2017-09-02T20:05:52.716Z,68.20
2017-09-02T20:08:20.591Z,69.20
2017-09-02T20:10:46.848Z,70.10
2017-09-02T20:13:13.107Z,69.30
2017-09-02T20:15:39.308Z,69.00
2017-09-02T20:18:05.519Z,69.50
2017-09-02T20:20:31.952Z,70.50
2017-09-02T20:22:58.993Z,70.70
2017-09-02T20:25:25.238Z,70.70
2017-09-02T20:27:51.458Z,70.60
2017-09-02T20:30:17.616Z,70.60
2017-09-02T20:32:43.820Z,70.50
2017-09-02T20:35:11.842Z,70.70
2017-09-02T20:37:38.055Z,71.40
2017-09-02T20:40:04.295Z,70.50
2017-09-02T20:42:30.506Z,70.00
2017-09-02T20:44:56.755Z,69.50
2017-09-02T20:47:22.976Z,69.30
2017-09-02T20:49:49.151Z,69.30
2017-09-02T20:52:16.014Z,69.60
2017-09-02T21:04:27.253Z,71.80
2017-09-02T21:06:53.435Z,73.00
2017-09-02T21:09:19.651Z,72.30
2017-09-02T21:11:45.878Z,72.50
2017-09-02T21:14:12.075Z,72.50
2017-09-02T21:16:38.267Z,72.40
2017-09-02T21:19:04.464Z,72.30
2017-09-02T21:21:30.719Z,71.80
2017-09-02T21:23:56.884Z,71.60
2017-09-02T21:26:23.046Z,70.80
2017-09-02T21:28:49.269Z,70.10
2017-09-02T21:31:15.713Z,69.60
2017-09-02T21:33:41.985Z,69.30
2017-09-02T21:36:08.514Z,68.60
2017-09-02T21:38:34.713Z,69.10
2017-09-02T21:41:00.915Z,68.80
2017-09-02T21:43:27.114Z,69.00
2017-09-02T21:45:53.333Z,68.80
2017-09-02T21:48:19.522Z,69.10
2017-09-02T21:50:45.739Z,69.00
2017-09-02T21:53:12.679Z,68.50
2017-09-02T21:55:39.164Z,69.20
2017-09-02T21:58:06.264Z,68.70
2017-09-02T22:00:32.519Z,69.50
2017-09-02T22:02:58.733Z,69.80
2017-09-02T22:07:54.166Z,70.50
2017-09-02T22:10:20.711Z,70.90
2017-09-02T22:12:46.875Z,72.00
2017-09-02T22:15:13.063Z,72.20
2017-09-02T22:17:39.239Z,72.00
2017-09-02T22:20:05.815Z,71.20
2017-09-02T22:22:32.002Z,71.40
2017-09-02T22:24:58.195Z,71.60
2017-09-02T22:27:24.391Z,71.50
2017-09-02T22:29:50.593Z,72.20
2017-09-02T22:32:17.138Z,72.20
2017-09-02T22:34:43.346Z,76.90
2017-09-02T22:37:09.533Z,70.90
2017-09-02T22:39:35.801Z,70.60
2017-09-02T22:42:02.765Z,70.80
2017-09-02T22:44:28.935Z,71.60
2017-09-02T22:46:55.069Z,72.00
2017-09-02T22:49:21.267Z,72.90
2017-09-02T22:51:47.441Z,73.20
2017-09-02T22:54:13.682Z,74.00
2017-09-02T22:56:39.875Z,74.90
2017-09-02T22:59:06.064Z,75.60
2017-09-02T23:01:32.254Z,75.40
2017-09-02T23:03:58.413Z,75.00
2017-09-02T23:06:24.628Z,75.50
2017-09-02T23:08:51.244Z,74.30
2017-09-02T23:11:17.436Z,73.80
2017-09-02T23:13:43.590Z,73.80
2017-09-02T23:16:09.880Z,75.10
2017-09-02T23:18:36.054Z,74.70
2017-09-02T23:21:02.230Z,74.90
2017-09-02T23:23:28.831Z,73.40
2017-09-02T23:25:55.052Z,73.50
2017-09-02T23:28:21.509Z,79.40
2017-09-02T23:30:47.674Z,73.00
2017-09-02T23:33:14.681Z,73.50
2017-09-02T23:35:40.914Z,74.00
2017-09-02T23:38:07.141Z,74.50
2017-09-02T23:40:33.694Z,73.90
2017-09-02T23:42:59.904Z,74.60
2017-09-02T23:45:26.071Z,74.90
2017-09-02T23:47:52.222Z,75.50
2017-09-02T23:50:19.403Z,74.40
2017-09-02T23:52:45.571Z,74.40
2017-09-02T23:55:11.731Z,74.10
2017-09-02T23:57:38.591Z,73.80
